Time;durP1;ratioP1;P1;durP2;ratioP2;P2;SDS_P1;SDS_P2;PMS_P1;PMS_P2;Temp;Humidity;BMP_temperature;BMP_pressure;BME280_temperature;BME280_humidity;BME280_pressure;Samples;Min_cycle;Max_cycle;Signal;HPM_P1;HPM_P2
2022/10/22 00:02:03;;;;;;;7.10;2.57;;;15.70;99.90;;;;;;4999593;28;20522;-74
2022/10/22 00:04:29;;;;;;;3.13;2.10;;;15.70;99.90;;;;;;4999598;28;20471;-74
2022/10/22 00:06:57;;;;;;;2.80;2.40;;;15.70;99.90;;;;;;5033132;28;20447;-74
2022/10/22 00:09:23;;;;;;;2.93;2.40;;;15.70;99.90;;;;;;5033383;28;20465;-74
2022/10/22 00:11:52;;;;;;;3.37;2.10;;;15.70;99.90;;;;;;5033372;28;20391;-74
2022/10/22 00:14:20;;;;;;;4.60;2.33;;;15.70;99.90;;;;;;5015700;28;20948;-74
2022/10/22 00:16:46;;;;;;;3.00;2.70;;;15.70;99.90;;;;;;5015401;28;20520;-74
2022/10/22 00:19:14;;;;;;;2.50;2.17;;;15.70;99.90;;;;;;5015656;28;20400;-74
2022/10/22 00:21:40;;;;;;;5.43;2.10;;;15.60;99.90;;;;;;5015544;28;20806;-74
2022/10/22 00:24:09;;;;;;;4.73;2.27;;;15.70;99.90;;;;;;4999460;28;20421;-74
2022/10/22 00:26:36;;;;;;;3.87;2.40;;;15.70;99.90;;;;;;4999176;28;20840;-74
2022/10/22 00:29:02;;;;;;;5.90;2.60;;;15.60;99.90;;;;;;5033006;28;20443;-74
2022/10/22 00:31:28;;;;;;;2.73;2.17;;;15.70;99.90;;;;;;5033004;28;20453;-74
2022/10/22 00:33:56;;;;;;;3.03;2.20;;;15.70;99.90;;;;;;5033054;28;20388;-74
2022/10/22 00:36:22;;;;;;;4.07;2.20;;;15.60;99.90;;;;;;4999175;28;20457;-74
2022/10/22 00:38:48;;;;;;;3.43;2.40;;;15.70;99.90;;;;;;5015553;28;20436;-74
2022/10/22 00:41:14;;;;;;;4.10;2.17;;;15.70;99.90;;;;;;5033123;28;20546;-74
2022/10/22 00:43:56;;;;;;;3.90;2.60;;;15.60;99.90;;;;;;5032993;28;20395;-74
2022/10/22 00:46:22;;;;;;;5.97;3.17;;;15.70;99.90;;;;;;5019271;28;21005;-73
2022/10/22 00:48:51;;;;;;;4.13;2.43;;;15.60;99.90;;;;;;5019364;28;20456;-73
2022/10/22 00:51:19;;;;;;;4.30;2.23;;;15.60;99.90;;;;;;5018476;28;20765;-74
2022/10/22 00:53:49;;;;;;;9.53;4.50;;;15.60;99.90;;;;;;5037009;28;20399;-74
2022/10/22 00:56:19;;;;;;;5.27;2.00;;;15.60;99.90;;;;;;5019388;28;20403;-74
2022/10/22 00:58:52;;;;;;;5.10;2.80;;;15.60;99.90;;;;;;5018891;28;20439;-74
2022/10/22 01:01:25;;;;;;;4.27;2.27;;;15.60;99.90;;;;;;5019336;28;20423;-74
2022/10/22 01:03:51;;;;;;;4.57;2.77;;;15.60;99.90;;;;;;5036863;28;20774;-74
2022/10/22 01:06:26;;;;;;;3.37;2.27;;;15.60;99.90;;;;;;5036917;28;20447;-74
2022/10/22 01:09:06;;;;;;;4.87;2.30;;;15.60;99.90;;;;;;5002702;28;20808;-74
2022/10/22 01:11:48;;;;;;;9.73;2.10;;;15.60;99.90;;;;;;5036496;28;20409;-73
2022/10/22 01:14:41;;;;;;;2.80;2.03;;;15.60;99.90;;;;;;5019041;28;20413;-74
2022/10/22 01:17:31;;;;;;;3.60;2.53;;;15.60;99.90;;;;;;4985138;28;20439;-74
2022/10/22 01:20:28;;;;;;;4.77;2.03;;;15.60;99.90;;;;;;5019520;28;20431;-74
2022/10/22 01:23:31;;;;;;;3.00;2.10;;;15.60;99.90;;;;;;5036494;28;20404;-74
2022/10/22 01:26:20;;;;;;;6.13;2.70;;;15.60;99.90;;;;;;5036294;28;20403;-74
2022/10/22 01:28:59;;;;;;;3.93;2.40;;;15.60;99.90;;;;;;5018844;28;20428;-74
2022/10/22 01:31:36;;;;;;;3.20;2.30;;;15.60;99.90;;;;;;5036555;28;20932;-74
2022/10/22 01:34:05;;;;;;;2.83;1.90;;;15.60;99.90;;;;;;5036259;28;20490;-74
2022/10/22 01:36:33;;;;;;;2.80;2.43;;;15.60;99.90;;;;;;5038037;28;20482;-72
2022/10/22 01:39:01;;;;;;;2.67;2.30;;;15.60;99.90;;;;;;5038345;28;20449;-72
2022/10/22 01:41:29;;;;;;;3.80;2.27;;;15.60;99.90;;;;;;5056054;28;20536;-72
2022/10/22 01:43:58;;;;;;;4.90;2.50;;;15.60;99.90;;;;;;5022039;28;20400;-72
2022/10/22 01:46:27;;;;;;;3.30;2.27;;;15.60;99.90;;;;;;5055924;28;20437;-73
2022/10/22 01:49:11;;;;;;;4.63;2.60;;;15.60;99.90;;;;;;5021968;28;20473;-72
2022/10/22 01:52:01;;;;;;;2.33;1.93;;;15.60;99.90;;;;;;5036680;28;20419;-72
2022/10/22 01:54:32;;;;;;;3.30;2.47;;;15.60;99.90;;;;;;5005684;28;20503;-72
2022/10/22 01:57:14;;;;;;;2.63;2.33;;;15.60;99.90;;;;;;5020488;28;20872;-73
2022/10/22 02:00:00;;;;;;;2.50;2.30;;;15.60;99.90;;;;;;5021377;28;20421;-72
2022/10/22 02:02:35;;;;;;;5.57;3.00;;;15.60;99.90;;;;;;5045282;28;20433;-72
2022/10/22 02:05:04;;;;;;;4.10;2.60;;;15.60;99.90;;;;;;5021495;28;20409;-72
2022/10/22 02:07:38;;;;;;;3.40;2.37;;;15.60;99.90;;;;;;5021117;28;20465;-72
2022/10/22 02:10:08;;;;;;;7.73;2.40;;;15.60;99.90;;;;;;5020807;28;20458;-73
2022/10/22 02:12:35;;;;;;;2.10;1.90;;;15.60;99.90;;;;;;5040701;28;20841;-72
2022/10/22 02:15:08;;;;;;;4.00;2.53;;;15.60;99.90;;;;;;5058084;28;20756;-72
2022/10/22 02:17:36;;;;;;;4.80;2.33;;;15.60;99.90;;;;;;5057530;28;20473;-72
2022/10/22 02:20:11;;;;;;;3.63;2.67;;;15.60;99.90;;;;;;5041536;28;20782;-72
2022/10/22 02:22:40;;;;;;;4.73;2.60;;;15.60;99.90;;;;;;5075207;28;20566;-72
2022/10/22 02:25:07;;;;;;;3.50;2.47;;;15.60;99.90;;;;;;5040941;28;20440;-72
2022/10/22 02:27:46;;;;;;;3.03;2.37;;;15.60;99.90;;;;;;5057275;28;20534;-72
2022/10/22 02:30:18;;;;;;;3.67;2.30;;;15.60;99.90;;;;;;5057670;28;20960;-73
2022/10/22 02:32:52;;;;;;;6.73;2.57;;;15.60;99.90;;;;;;5001123;28;20400;-72
2022/10/22 02:35:23;;;;;;;2.70;2.33;;;15.60;99.90;;;;;;5035965;28;20453;-72
2022/10/22 02:37:55;;;;;;;2.97;2.40;;;15.60;99.90;;;;;;5039754;28;20804;-73
2022/10/22 02:40:25;;;;;;;3.67;2.40;;;15.50;99.90;;;;;;5036722;28;20477;-72
2022/10/22 02:42:54;;;;;;;4.53;2.60;;;15.60;99.90;;;;;;5066757;28;20425;-72
2022/10/22 02:45:24;;;;;;;2.80;2.60;;;15.60;99.90;;;;;;5040473;28;20490;-72
2022/10/22 02:47:50;;;;;;;4.57;2.30;;;15.50;99.90;;;;;;5056803;28;20557;-72
2022/10/22 02:50:16;;;;;;;3.30;2.73;;;15.60;99.90;;;;;;5074936;28;20457;-72
2022/10/22 02:52:44;;;;;;;7.73;2.80;;;15.50;99.90;;;;;;5074462;28;20441;-73
2022/10/22 02:55:15;;;;;;;2.80;2.20;;;15.50;99.90;;;;;;5040312;28;20417;-72
2022/10/22 02:57:41;;;;;;;3.90;2.80;;;15.50;99.90;;;;;;5038422;28;20457;-72
2022/10/22 03:00:09;;;;;;;4.53;2.53;;;15.50;99.90;;;;;;5038460;28;20427;-72
2022/10/22 03:02:35;;;;;;;6.40;2.70;;;15.50;99.90;;;;;;5054445;28;20400;-72
2022/10/22 03:05:04;;;;;;;4.10;2.17;;;15.50;99.90;;;;;;5020875;28;20887;-72
2022/10/22 03:07:34;;;;;;;4.63;2.30;;;15.50;99.90;;;;;;5036827;28;20464;-72
2022/10/22 03:10:03;;;;;;;4.90;2.50;;;15.50;99.90;;;;;;5072529;28;20421;-72
2022/10/22 03:12:29;;;;;;;3.20;2.70;;;15.50;99.90;;;;;;5047870;28;20500;-72
2022/10/22 03:14:57;;;;;;;3.10;2.80;;;15.50;99.90;;;;;;5054254;28;20395;-73
2022/10/22 03:17:26;;;;;;;3.93;2.60;;;15.50;99.90;;;;;;5016174;28;20452;-72
2022/10/22 03:19:54;;;;;;;5.40;2.93;;;15.50;99.90;;;;;;5016554;28;20434;-72
2022/10/22 03:22:25;;;;;;;4.23;3.07;;;15.50;99.90;;;;;;5019841;28;20423;-72
2022/10/22 03:25:00;;;;;;;4.70;2.90;;;15.50;99.90;;;;;;5036421;28;20863;-72
2022/10/22 03:27:38;;;;;;;9.33;2.80;;;15.50;99.90;;;;;;5036423;28;20840;-73
2022/10/22 03:30:05;;;;;;;3.50;2.50;;;15.50;99.90;;;;;;5019793;28;20768;-72
2022/10/22 03:32:36;;;;;;;3.33;2.60;;;15.50;99.90;;;;;;5061760;28;20463;-72
2022/10/22 03:35:05;;;;;;;7.13;2.90;;;15.50;99.90;;;;;;5039664;28;20517;-73
2022/10/22 03:37:32;;;;;;;3.40;2.30;;;15.50;99.90;;;;;;5039696;28;20492;-73
2022/10/22 03:39:59;;;;;;;4.57;2.70;;;15.50;99.90;;;;;;5056074;28;20426;-72
2022/10/22 03:42:25;;;;;;;4.80;2.73;;;15.50;99.90;;;;;;5055897;28;20413;-72
2022/10/22 03:44:53;;;;;;;4.13;2.30;;;15.50;99.90;;;;;;5039374;28;20398;-72
2022/10/22 03:47:23;;;;;;;3.30;2.63;;;15.50;99.90;;;;;;5055661;28;20462;-73
2022/10/22 03:49:54;;;;;;;2.87;2.60;;;15.50;99.90;;;;;;5036623;28;20499;-72
2022/10/22 03:52:19;;;;;;;3.23;2.80;;;15.50;99.90;;;;;;5050334;28;20421;-72
2022/10/22 03:54:46;;;;;;;6.20;3.30;;;15.50;99.90;;;;;;5039031;28;20489;-73
2022/10/22 03:57:14;;;;;;;3.67;2.83;;;15.50;99.90;;;;;;5055693;28;20500;-72
2022/10/22 03:59:45;;;;;;;4.43;3.03;;;15.50;99.90;;;;;;5040834;28;20610;-72
2022/10/22 04:02:12;;;;;;;6.50;3.23;;;15.50;99.90;;;;;;5039071;28;20403;-72
2022/10/22 04:04:38;;;;;;;4.00;2.37;;;15.50;99.90;;;;;;5055517;28;20442;-72
2022/10/22 04:07:06;;;;;;;3.50;2.60;;;15.50;99.90;;;;;;5038750;28;20469;-72
2022/10/22 04:09:32;;;;;;;4.03;2.77;;;15.50;99.90;;;;;;5055641;28;20423;-72
2022/10/22 04:12:04;;;;;;;4.13;2.80;;;15.50;99.90;;;;;;5028457;28;20942;-72
2022/10/22 04:14:32;;;;;;;3.97;2.30;;;15.50;99.90;;;;;;5053098;28;20441;-72
2022/10/22 04:17:03;;;;;;;3.03;2.47;;;15.50;99.90;;;;;;5019036;28;20423;-72
2022/10/22 04:19:29;;;;;;;3.70;2.50;;;15.50;99.90;;;;;;5052694;28;20783;-72
2022/10/22 04:21:59;;;;;;;3.10;2.80;;;15.50;99.90;;;;;;5052174;28;20425;-72
2022/10/22 04:24:25;;;;;;;4.13;2.87;;;15.50;99.90;;;;;;5019027;28;20916;-72
2022/10/22 04:26:54;;;;;;;2.60;2.20;;;15.50;99.90;;;;;;5035127;28;20501;-72
2022/10/22 04:29:23;;;;;;;6.10;3.10;;;15.50;99.90;;;;;;5035286;28;20434;-72
2022/10/22 04:31:51;;;;;;;6.50;3.33;;;15.50;99.90;;;;;;5019098;28;20877;-72
2022/10/22 04:34:21;;;;;;;5.40;2.73;;;15.50;99.90;;;;;;5032068;28;20447;-72
2022/10/22 04:36:47;;;;;;;3.70;2.93;;;15.50;99.90;;;;;;5035239;28;20454;-72
2022/10/22 04:39:20;;;;;;;4.57;2.73;;;15.50;99.90;;;;;;5018969;28;20765;-72
2022/10/22 04:41:48;;;;;;;4.03;3.03;;;15.50;99.90;;;;;;5035571;28;20418;-72
2022/10/22 04:44:16;;;;;;;3.50;2.63;;;15.50;99.90;;;;;;5035142;28;20414;-72
2022/10/22 04:46:43;;;;;;;4.80;3.03;;;15.50;99.90;;;;;;5034743;28;20808;-72
2022/10/22 04:49:09;;;;;;;4.97;2.97;;;15.50;99.90;;;;;;5052794;28;20445;-72
2022/10/22 04:51:35;;;;;;;3.50;3.03;;;15.50;99.90;;;;;;5035053;28;20447;-73
2022/10/22 04:54:01;;;;;;;5.50;2.87;;;15.50;99.90;;;;;;5036280;28;20503;-72
2022/10/22 04:56:29;;;;;;;2.97;2.67;;;15.50;99.90;;;;;;5055212;28;20440;-72
2022/10/22 04:59:05;;;;;;;5.20;3.00;;;15.40;99.90;;;;;;5021596;28;20478;-72
2022/10/22 05:01:33;;;;;;;4.90;2.83;;;15.50;99.90;;;;;;5040818;28;20451;-72
2022/10/22 05:04:01;;;;;;;4.10;2.63;;;15.40;99.90;;;;;;5052689;28;20410;-72
2022/10/22 05:06:35;;;;;;;3.87;3.47;;;15.50;99.90;;;;;;5002968;28;20465;-72
2022/10/22 05:09:10;;;;;;;4.60;2.80;;;15.50;99.90;;;;;;5037627;28;20460;-72
2022/10/22 05:11:47;;;;;;;3.10;2.43;;;15.40;99.90;;;;;;5055139;28;20399;-73
2022/10/22 05:14:16;;;;;;;3.53;2.80;;;15.40;99.90;;;;;;5053056;28;20441;-72
2022/10/22 05:16:46;;;;;;;6.30;3.20;;;15.40;99.90;;;;;;5034869;28;20822;-73
2022/10/22 05:19:23;;;;;;;4.67;2.70;;;15.40;99.90;;;;;;5034906;28;20397;-72
2022/10/22 05:21:53;;;;;;;3.23;2.40;;;15.40;99.90;;;;;;5018399;28;20549;-72
2022/10/22 05:24:20;;;;;;;5.57;3.27;;;15.40;99.90;;;;;;5034836;28;20415;-73
2022/10/22 05:26:53;;;;;;;3.97;3.07;;;15.40;99.90;;;;;;5018229;28;20454;-72
2022/10/22 05:29:19;;;;;;;6.50;2.70;;;15.40;99.90;;;;;;5052336;28;20503;-73
2022/10/22 05:31:50;;;;;;;3.10;2.63;;;15.50;99.90;;;;;;5035820;28;20768;-72
2022/10/22 05:34:18;;;;;;;4.20;2.83;;;15.50;99.90;;;;;;5019251;28;21254;-72
2022/10/22 05:36:47;;;;;;;3.70;2.67;;;15.40;99.90;;;;;;5036193;28;20450;-72
2022/10/22 05:39:15;;;;;;;5.40;2.93;;;15.40;99.90;;;;;;5002538;28;20466;-73
2022/10/22 05:41:48;;;;;;;2.67;2.33;;;15.40;99.90;;;;;;5024723;28;20474;-73
2022/10/22 05:44:17;;;;;;;4.13;2.90;;;15.40;99.90;;;;;;5056126;28;20396;-73
2022/10/22 05:46:43;;;;;;;5.80;3.40;;;15.40;99.90;;;;;;5038133;28;20462;-72
2022/10/22 05:49:12;;;;;;;8.10;2.77;;;15.40;99.90;;;;;;5055925;28;20498;-72
2022/10/22 05:51:41;;;;;;;5.20;3.57;;;15.40;99.90;;;;;;5055887;28;20427;-72
2022/10/22 05:54:11;;;;;;;3.13;2.83;;;15.40;99.90;;;;;;5021611;28;20461;-72
2022/10/22 05:56:38;;;;;;;3.23;2.93;;;15.40;99.90;;;;;;5021108;28;20443;-72
2022/10/22 05:59:06;;;;;;;4.17;3.60;;;15.40;99.90;;;;;;5037819;28;20544;-71
2022/10/22 06:01:35;;;;;;;4.93;3.00;;;15.40;99.90;;;;;;5037862;28;20424;-71
2022/10/22 06:04:05;;;;;;;3.40;3.10;;;15.40;99.90;;;;;;5041486;28;20435;-70
2022/10/22 06:06:50;;;;;;;4.70;3.00;;;15.40;99.90;;;;;;5056675;28;20450;-71
2022/10/22 06:09:24;;;;;;;3.03;2.73;;;15.40;99.90;;;;;;5030266;28;20443;-70
2022/10/22 06:11:56;;;;;;;4.20;3.27;;;15.40;99.90;;;;;;5038225;28;20406;-70
2022/10/22 06:14:24;;;;;;;4.70;3.80;;;15.40;99.90;;;;;;5053792;28;20468;-70
2022/10/22 06:16:51;;;;;;;5.00;3.00;;;15.40;99.90;;;;;;5054778;28;20406;-70
2022/10/22 06:19:22;;;;;;;6.13;3.20;;;15.40;99.90;;;;;;5020455;28;20419;-70
2022/10/22 06:21:50;;;;;;;5.30;3.80;;;15.40;99.90;;;;;;5036821;28;20456;-70
2022/10/22 06:24:16;;;;;;;5.20;3.43;;;15.40;99.90;;;;;;5054640;28;20431;-70
2022/10/22 06:26:48;;;;;;;7.10;3.90;;;15.40;99.90;;;;;;5004118;28;20505;-70
2022/10/22 06:29:14;;;;;;;4.50;3.60;;;15.40;99.90;;;;;;5020474;28;20477;-70
2022/10/22 06:31:39;;;;;;;4.37;3.10;;;15.40;99.90;;;;;;5054468;28;20896;-70
2022/10/22 06:34:12;;;;;;;4.70;3.73;;;15.40;99.90;;;;;;5054516;28;20411;-70
2022/10/22 06:36:43;;;;;;;7.63;3.93;;;15.40;99.90;;;;;;5054380;28;20159;-70
2022/10/22 06:39:13;;;;;;;6.20;3.60;;;15.40;99.90;;;;;;5036713;28;20415;-70
2022/10/22 06:41:38;;;;;;;6.13;3.83;;;15.30;99.90;;;;;;5064171;28;20414;-70
2022/10/22 06:44:04;;;;;;;5.57;3.10;;;15.40;99.90;;;;;;5056104;28;20420;-70
2022/10/22 06:46:33;;;;;;;4.93;3.43;;;15.30;99.90;;;;;;5040427;28;20530;-70
2022/10/22 06:49:03;;;;;;;4.77;3.60;;;15.40;99.90;;;;;;5023627;28;20446;-70
2022/10/22 06:51:31;;;;;;;5.03;3.60;;;15.30;99.90;;;;;;5056495;28;20410;-70
2022/10/22 06:53:59;;;;;;;4.70;3.57;;;15.40;99.90;;;;;;5038072;28;20511;-70
2022/10/22 06:56:27;;;;;;;5.13;3.47;;;15.40;99.90;;;;;;5073466;28;20415;-70
2022/10/22 06:58:54;;;;;;;5.93;3.50;;;15.40;99.90;;;;;;5039549;28;20478;-70
2022/10/22 07:01:23;;;;;;;3.47;3.17;;;15.30;99.90;;;;;;5055993;28;20402;-70
2022/10/22 07:03:50;;;;;;;6.97;3.60;;;15.30;99.90;;;;;;5039563;28;20473;-70
2022/10/22 07:06:17;;;;;;;5.97;3.70;;;15.40;99.90;;;;;;5073744;28;20809;-70
2022/10/22 07:08:43;;;;;;;4.50;3.57;;;15.40;99.90;;;;;;5073669;28;20426;-70
2022/10/22 07:11:13;;;;;;;5.67;3.33;;;15.40;99.90;;;;;;5073754;28;20400;-70
2022/10/22 07:13:42;;;;;;;3.40;3.10;;;15.40;99.90;;;;;;5055876;28;20407;-70
2022/10/22 07:16:11;;;;;;;7.03;3.57;;;15.40;99.90;;;;;;5056178;28;20414;-70
2022/10/22 07:18:38;;;;;;;4.57;2.93;;;15.40;99.90;;;;;;5055689;28;20430;-70
2022/10/22 07:21:06;;;;;;;3.97;3.37;;;15.40;99.90;;;;;;5039084;28;20786;-70
2022/10/22 07:23:32;;;;;;;4.73;3.70;;;15.40;99.90;;;;;;5073551;28;20401;-70
2022/10/22 07:25:58;;;;;;;7.13;3.90;;;15.40;99.90;;;;;;5055534;28;20408;-70
2022/10/22 07:28:24;;;;;;;3.97;3.10;;;15.40;99.90;;;;;;5055556;28;20456;-70
2022/10/22 07:30:50;;;;;;;8.27;4.07;;;15.40;99.90;;;;;;5055514;28;20417;-69
2022/10/22 07:33:16;;;;;;;4.17;3.23;;;15.40;99.90;;;;;;5073481;28;20406;-73
2022/10/22 07:35:42;;;;;;;4.30;3.40;;;15.40;99.90;;;;;;5039475;28;20424;-73
2022/10/22 07:38:11;;;;;;;8.00;3.00;;;15.40;99.90;;;;;;5039708;28;20441;-73
2022/10/22 07:40:37;;;;;;;4.23;3.07;;;15.40;99.90;;;;;;5039547;28;20436;-73
2022/10/22 07:43:04;;;;;;;4.23;3.17;;;15.40;99.90;;;;;;5055775;28;20390;-72
2022/10/22 07:45:29;;;;;;;2.77;2.57;;;15.40;99.90;;;;;;5073283;28;20409;-72
2022/10/22 07:47:59;;;;;;;4.70;3.30;;;15.40;99.90;;;;;;5055601;28;20469;-73
2022/10/22 07:50:25;;;;;;;4.27;3.30;;;15.40;99.90;;;;;;5055954;28;20419;-72
2022/10/22 07:52:51;;;;;;;4.77;3.20;;;15.40;99.90;;;;;;5055908;28;20415;-76
2022/10/22 07:55:20;;;;;;;10.00;3.13;;;15.40;99.90;;;;;;5072793;28;20438;-72
2022/10/22 07:57:49;;;;;;;6.93;3.40;;;15.40;99.90;;;;;;5073330;28;20477;-72
2022/10/22 08:00:15;;;;;;;5.57;2.93;;;15.40;99.90;;;;;;5073392;28;20441;-72
2022/10/22 08:02:43;;;;;;;4.33;3.20;;;15.40;99.90;;;;;;5039180;28;20430;-72
2022/10/22 08:05:09;;;;;;;4.43;3.10;;;15.40;99.90;;;;;;5073333;28;20482;-72
2022/10/22 08:07:40;;;;;;;4.57;3.70;;;15.40;99.90;;;;;;5055364;28;20470;-72
2022/10/22 08:10:09;;;;;;;7.23;3.43;;;15.40;99.90;;;;;;5055860;28;20434;-72
2022/10/22 08:12:38;;;;;;;5.60;3.20;;;15.40;99.90;;;;;;5073191;28;20433;-72
2022/10/22 08:15:08;;;;;;;6.80;3.70;;;15.40;99.90;;;;;;5073141;28;20401;-73
2022/10/22 08:17:35;;;;;;;4.40;3.20;;;15.40;99.90;;;;;;5041948;28;20495;-72
2022/10/22 08:20:01;;;;;;;3.93;2.90;;;15.40;99.90;;;;;;5035403;28;20913;-72
2022/10/22 08:22:29;;;;;;;3.40;3.10;;;15.40;99.90;;;;;;5035117;28;20411;-72
2022/10/22 08:24:55;;;;;;;4.23;3.47;;;15.40;99.90;;;;;;5017535;28;20416;-72
2022/10/22 08:27:24;;;;;;;5.17;2.87;;;15.50;99.90;;;;;;5035059;28;20477;-72
2022/10/22 08:29:52;;;;;;;4.00;3.00;;;15.40;99.90;;;;;;5034593;28;20433;-73
2022/10/22 08:32:18;;;;;;;4.20;2.97;;;15.40;99.90;;;;;;5035102;28;20403;-73
2022/10/22 08:34:47;;;;;;;6.27;3.00;;;15.40;99.90;;;;;;5018749;28;21080;-73
2022/10/22 08:37:35;;;;;;;3.93;3.00;;;15.50;99.90;;;;;;5035095;28;20465;-72
2022/10/22 08:40:06;;;;;;;3.93;2.40;;;15.50;99.90;;;;;;5034537;28;20816;-73
2022/10/22 08:42:44;;;;;;;4.87;3.10;;;15.40;99.90;;;;;;5035282;28;20504;-72
2022/10/22 08:45:31;;;;;;;10.50;3.37;;;15.40;99.90;;;;;;5018752;28;20428;-72
2022/10/22 08:48:03;;;;;;;6.97;3.30;;;15.40;99.90;;;;;;5034969;28;20860;-72
2022/10/22 08:50:37;;;;;;;4.40;2.77;;;15.40;99.90;;;;;;5034469;28;20423;-72
2022/10/22 08:53:14;;;;;;;5.00;3.00;;;15.50;99.90;;;;;;5018606;28;20493;-72
2022/10/22 08:55:41;;;;;;;3.10;2.60;;;15.50;99.90;;;;;;5052782;28;20424;-72
2022/10/22 08:58:16;;;;;;;9.53;3.00;;;15.50;99.90;;;;;;5034599;28;20458;-72
2022/10/22 09:00:45;;;;;;;4.13;2.63;;;15.40;99.90;;;;;;5018780;28;20427;-72
2022/10/22 09:03:35;;;;;;;6.50;2.93;;;15.50;99.90;;;;;;5034080;28;20438;-72
2022/10/22 09:06:10;;;;;;;4.40;3.13;;;15.50;99.90;;;;;;5037273;28;20426;-72
2022/10/22 09:08:43;;;;;;;5.10;3.00;;;15.50;99.90;;;;;;5038790;28;20519;-72
2022/10/22 09:11:14;;;;;;;4.40;3.20;;;15.50;99.90;;;;;;5056653;28;20820;-73
2022/10/22 09:13:46;;;;;;;4.57;2.83;;;15.50;99.90;;;;;;5006111;28;20418;-72
2022/10/22 09:16:36;;;;;;;7.40;3.03;;;15.50;99.90;;;;;;5021972;28;20955;-70
2022/10/22 09:19:13;;;;;;;4.50;2.43;;;15.50;99.90;;;;;;5073470;28;20815;-72
2022/10/22 09:21:56;;;;;;;3.87;2.30;;;15.50;99.90;;;;;;5058680;28;20981;-73
2022/10/22 09:24:35;;;;;;;3.50;2.10;;;15.50;99.90;;;;;;5041987;28;20408;-73
2022/10/22 09:27:13;;;;;;;4.30;2.63;;;15.50;99.90;;;;;;5042018;28;20475;-73
2022/10/22 09:29:43;;;;;;;5.20;2.83;;;15.60;99.90;;;;;;5042139;28;20994;-73
2022/10/22 09:32:09;;;;;;;4.27;2.70;;;15.60;99.90;;;;;;5041918;28;20454;-73
2022/10/22 09:34:35;;;;;;;5.53;3.30;;;15.60;99.90;;;;;;5041053;28;20437;-73
2022/10/22 09:37:10;;;;;;;4.83;2.73;;;15.60;99.90;;;;;;5076141;28;20486;-75
2022/10/22 09:39:43;;;;;;;6.30;2.90;;;15.60;99.90;;;;;;5075731;28;20401;-75
2022/10/22 09:42:14;;;;;;;5.77;2.60;;;15.60;99.90;;;;;;5058112;28;20429;-73
2022/10/22 09:47:33;;;;;;;6.10;2.50;;;15.60;99.90;;;;;;5032141;28;20572;-70
2022/10/22 09:50:21;;;;;;;4.27;2.93;;;15.60;99.90;;;;;;5036076;28;20435;-71
2022/10/22 09:52:59;;;;;;;3.93;2.70;;;15.60;99.90;;;;;;5035924;28;20407;-71
2022/10/22 09:55:26;;;;;;;3.80;2.63;;;15.60;99.90;;;;;;4986176;28;20809;-69
2022/10/22 09:57:58;;;;;;;5.03;2.10;;;15.70;99.90;;;;;;5018286;28;20440;-69
2022/10/22 10:00:27;;;;;;;4.77;2.30;;;15.60;99.90;;;;;;5018058;28;20515;-71
2022/10/22 10:03:00;;;;;;;4.63;2.13;;;15.70;99.90;;;;;;5018643;28;20437;-69
2022/10/22 10:05:30;;;;;;;4.63;2.27;;;15.60;99.90;;;;;;5002059;28;20910;-70
2022/10/22 10:08:01;;;;;;;6.47;2.40;;;15.70;99.90;;;;;;5035739;28;20466;-70
2022/10/22 10:10:40;;;;;;;4.70;2.30;;;15.70;99.90;;;;;;5035863;28;20392;-71
2022/10/22 10:13:28;;;;;;;7.43;2.47;;;15.70;99.90;;;;;;5050066;28;20456;-71
2022/10/22 10:16:02;;;;;;;3.87;2.10;;;15.70;99.90;;;;;;5038149;28;20919;-71
2022/10/22 10:18:55;;;;;;;4.10;2.23;;;15.70;99.90;;;;;;5021897;28;20900;-72
2022/10/22 10:21:41;;;;;;;4.57;2.10;;;15.70;99.90;;;;;;5017512;28;20470;-71
2022/10/22 10:24:25;;;;;;;3.30;2.00;;;15.80;99.90;;;;;;5035437;28;20451;-72
2022/10/22 10:27:04;;;;;;;5.10;2.10;;;15.80;99.90;;;;;;5035115;28;20467;-72
2022/10/22 10:29:42;;;;;;;5.70;2.17;;;15.80;99.90;;;;;;5017830;28;20447;-72
2022/10/22 10:32:29;;;;;;;9.13;2.23;;;15.80;99.90;;;;;;5034552;28;20434;-71
2022/10/22 10:35:07;;;;;;;4.57;2.80;;;15.80;99.90;;;;;;5035207;28;20450;-71
2022/10/22 10:37:51;;;;;;;2.10;1.50;;;15.80;99.90;;;;;;5035279;28;20564;-69
2022/10/22 10:40:43;;;;;;;9.30;3.13;;;15.90;99.90;;;;;;5017397;28;20801;-69
2022/10/22 10:43:26;;;;;;;7.90;2.70;;;15.90;99.90;;;;;;5032209;28;20448;-69
2022/10/22 10:46:18;;;;;;;3.70;1.93;;;15.80;99.90;;;;;;5054792;28;20435;-70
2022/10/22 10:48:55;;;;;;;5.50;1.70;;;15.90;99.90;;;;;;5020683;28;20490;-69
2022/10/22 10:51:27;;;;;;;5.10;1.70;;;15.90;99.90;;;;;;5020613;28;20408;-70
2022/10/22 10:54:04;;;;;;;3.87;1.90;;;15.90;99.90;;;;;;5004365;28;20923;-70
2022/10/22 10:57:03;;;;;;;3.20;1.87;;;15.90;99.90;;;;;;5020419;28;20424;-74
2022/10/22 10:59:56;;;;;;;5.77;2.20;;;16.00;99.90;;;;;;5036848;28;20454;-68
2022/10/22 11:02:47;;;;;;;11.03;3.33;;;15.90;99.90;;;;;;5035250;28;20391;-69
2022/10/22 11:05:39;;;;;;;5.00;1.93;;;16.00;99.90;;;;;;5017481;28;20414;-68
2022/10/22 11:08:36;;;;;;;4.03;2.03;;;16.00;99.90;;;;;;5017342;28;20469;-69
2022/10/22 11:11:11;;;;;;;3.30;1.87;;;16.00;99.90;;;;;;5034850;28;21007;-68
2022/10/22 11:13:44;;;;;;;5.03;2.13;;;16.00;99.90;;;;;;5000665;28;20427;-68
2022/10/22 11:16:16;;;;;;;5.13;1.73;;;16.00;99.90;;;;;;5034429;28;20807;-69
2022/10/22 11:19:11;;;;;;;4.13;2.13;;;16.00;99.90;;;;;;5000522;28;20444;-68
2022/10/22 11:21:42;;;;;;;3.20;1.70;;;16.10;99.90;;;;;;5034397;28;20424;-69
2022/10/22 11:24:22;;;;;;;4.60;1.90;;;16.00;99.90;;;;;;5036664;28;20413;-69
2022/10/22 11:27:01;;;;;;;4.30;1.67;;;16.10;99.90;;;;;;5068381;28;20514;-68
2022/10/22 11:29:38;;;;;;;4.67;1.97;;;16.10;99.90;;;;;;5033068;28;20498;-68
2022/10/22 11:32:18;;;;;;;4.87;1.40;;;16.10;99.90;;;;;;5034320;28;20894;-69
2022/10/22 11:34:53;;;;;;;5.20;2.00;;;16.10;99.90;;;;;;5000000;28;20431;-69
2022/10/22 11:37:23;;;;;;;5.07;2.13;;;16.10;99.90;;;;;;5016307;28;20431;-69
2022/10/22 11:39:52;;;;;;;8.93;1.90;;;16.20;99.90;;;;;;5034011;28;20778;-69
2022/10/22 11:42:35;;;;;;;6.23;1.87;;;16.10;99.90;;;;;;5016487;28;20400;-69
2022/10/22 11:45:28;;;;;;;3.77;1.77;;;16.10;99.90;;;;;;5033797;28;20446;-69
2022/10/22 11:48:11;;;;;;;3.13;1.40;;;16.10;99.90;;;;;;5033660;28;20495;-69
2022/10/22 11:50:56;;;;;;;3.23;1.83;;;16.10;99.90;;;;;;5034081;28;20412;-69
2022/10/22 11:53:24;;;;;;;5.43;1.97;;;16.20;99.90;;;;;;5033804;28;20424;-69
2022/10/22 11:56:02;;;;;;;3.00;1.20;;;16.20;99.90;;;;;;5016311;28;20412;-69
2022/10/22 11:58:28;;;;;;;3.90;1.30;;;16.20;99.90;;;;;;5016097;28;20448;-69
2022/10/22 12:01:14;;;;;;;3.10;1.33;;;16.20;99.90;;;;;;5016255;28;20413;-69
2022/10/22 12:03:50;;;;;;;5.17;1.97;;;16.20;99.90;;;;;;5033486;28;20426;-69
2022/10/22 12:06:24;;;;;;;2.53;1.50;;;16.20;99.90;;;;;;5015928;28;20424;-69
2022/10/22 12:08:53;;;;;;;3.10;1.50;;;16.20;99.90;;;;;;4999525;28;20458;-68
2022/10/22 12:11:43;;;;;;;3.50;1.40;;;16.20;99.90;;;;;;5015939;28;20534;-69
2022/10/22 12:14:25;;;;;;;2.00;1.40;;;16.20;99.90;;;;;;5015905;28;20422;-69
2022/10/22 12:16:55;;;;;;;3.93;1.40;;;16.20;99.90;;;;;;4999289;28;20459;-68
2022/10/22 12:19:23;;;;;;;3.63;1.50;;;16.20;99.90;;;;;;5015857;28;20433;-68
2022/10/22 12:21:55;;;;;;;3.70;1.60;;;16.20;99.90;;;;;;5033391;28;20483;-69
2022/10/22 12:24:28;;;;;;;4.10;1.53;;;16.20;99.90;;;;;;4999756;28;20465;-69
2022/10/22 12:26:56;;;;;;;2.87;1.27;;;16.30;99.90;;;;;;4999142;28;20467;-69
2022/10/22 12:29:24;;;;;;;2.50;1.20;;;16.30;99.90;;;;;;5033154;28;20396;-68
2022/10/22 12:31:50;;;;;;;2.40;1.60;;;16.30;99.90;;;;;;5033264;28;20449;-69
2022/10/22 12:34:22;;;;;;;3.90;1.37;;;16.30;99.90;;;;;;4999354;28;20416;-69
2022/10/22 12:36:52;;;;;;;4.73;1.53;;;16.30;99.90;;;;;;5048141;28;20202;-69
2022/10/22 12:39:26;;;;;;;3.20;1.40;;;16.30;99.90;;;;;;5033045;28;20405;-69
2022/10/22 12:42:20;;;;;;;2.93;1.47;;;16.30;99.90;;;;;;5027773;28;20435;-69
2022/10/22 12:44:54;;;;;;;3.43;1.63;;;16.30;99.90;;;;;;5033111;28;20817;-69
2022/10/22 12:47:22;;;;;;;4.13;1.57;;;16.30;99.90;;;;;;5032888;28;20878;-69
2022/10/22 12:49:51;;;;;;;5.40;1.87;;;16.30;99.90;;;;;;5015575;28;20425;-69
2022/10/22 12:52:40;;;;;;;2.40;1.23;;;16.30;99.90;;;;;;5001813;28;20455;-69
2022/10/22 12:55:09;;;;;;;4.70;1.87;;;16.30;99.90;;;;;;5033111;28;20941;-69
2022/10/22 12:58:09;;;;;;;6.73;2.33;;;16.40;99.90;;;;;;5031542;28;20950;-68
2022/10/22 13:00:35;;;;;;;2.60;1.53;;;16.40;99.90;;;;;;5022529;28;20481;-68
2022/10/22 13:03:08;;;;;;;4.10;1.40;;;16.40;99.90;;;;;;5018830;28;20465;-69
2022/10/22 13:05:38;;;;;;;4.03;2.00;;;16.40;99.90;;;;;;5002438;28;20415;-68
2022/10/22 13:08:18;;;;;;;3.27;1.30;;;16.40;99.90;;;;;;5034780;28;20470;-69
2022/10/22 13:10:52;;;;;;;3.77;1.77;;;16.40;99.90;;;;;;5035011;28;20394;-69
2022/10/22 13:13:37;;;;;;;5.30;1.90;;;16.40;99.90;;;;;;5034980;28;20433;-69
2022/10/22 13:16:19;;;;;;;3.67;1.80;;;16.40;99.90;;;;;;4995611;28;20400;-69